createdAt,value
2018-09-24T00:01:01.274Z,3.2
2018-09-24T00:07:01.297Z,3.6
2018-09-24T00:12:01.235Z,3.4
2018-09-24T00:27:01.247Z,3.4
2018-09-24T00:32:01.244Z,3.2
2018-09-24T00:37:01.248Z,3.2
2018-09-24T00:42:01.250Z,3.1
2018-09-24T00:47:01.275Z,3.1
2018-09-24T00:52:02.297Z,3.3
2018-09-24T00:57:01.242Z,3.1
2018-09-24T01:02:01.238Z,3.0
2018-09-24T01:07:01.243Z,2.9
2018-09-24T01:12:01.240Z,3.1
2018-09-24T01:17:01.245Z,2.8
2018-09-24T01:22:01.244Z,2.6
2018-09-24T01:32:01.307Z,2.7
2018-09-24T01:37:01.297Z,2.3
2018-09-24T01:42:01.269Z,2.5
2018-09-24T01:47:01.242Z,2.7
2018-09-24T01:52:01.244Z,3.0
2018-09-24T01:57:01.260Z,2.8
2018-09-24T02:02:01.242Z,3.0
2018-09-24T02:17:01.247Z,3.2
2018-09-24T02:22:01.217Z,3.2
2018-09-24T02:27:01.247Z,3.1
2018-09-24T02:32:01.300Z,2.6
2018-09-24T02:37:01.236Z,2.8
2018-09-24T02:42:01.237Z,2.5
2018-09-24T02:52:01.241Z,2.8
2018-09-24T03:02:01.247Z,2.4
2018-09-24T03:07:01.271Z,2.6
2018-09-24T03:12:01.283Z,2.4
2018-09-24T03:18:06.233Z,2.4
2018-09-24T03:23:01.343Z,2.6
2018-09-24T03:28:06.305Z,2.8
2018-09-24T03:38:01.304Z,2.6
2018-09-24T03:43:01.244Z,2.8
2018-09-24T03:48:01.552Z,3.0
2018-09-24T03:53:01.263Z,3.0
2018-09-24T03:58:01.234Z,3.0
2018-09-24T04:03:01.245Z,3.2
2018-09-24T04:08:01.259Z,3.2
2018-09-24T04:13:01.246Z,2.8
2018-09-24T04:28:01.247Z,2.8
2018-09-24T04:33:01.232Z,2.8
2018-09-24T04:38:06.325Z,3.0
2018-09-24T04:43:01.508Z,3.2
2018-09-24T04:48:01.236Z,3.1
2018-09-24T04:53:01.429Z,3.1
2018-09-24T04:58:01.238Z,2.9
2018-09-24T05:03:01.243Z,3.0
2018-09-24T05:08:01.249Z,3.2
2018-09-24T05:13:01.245Z,3.1
2018-09-24T05:18:01.232Z,3.1
2018-09-24T05:23:01.256Z,3.1
2018-09-24T05:28:01.301Z,2.8
2018-09-24T05:38:01.242Z,3.4
2018-09-24T05:43:01.246Z,3.4
2018-09-24T05:48:01.343Z,4.0
2018-09-24T05:58:01.251Z,3.9
2018-09-24T06:03:01.230Z,3.2
2018-09-24T06:08:01.235Z,3.2
2018-09-24T06:13:01.234Z,2.7
2018-09-24T06:18:01.234Z,2.6
2018-09-24T06:23:06.253Z,2.4
2018-09-24T06:28:06.432Z,2.5
2018-09-24T06:33:01.242Z,2.4
2018-09-24T06:38:01.243Z,2.3
2018-09-24T06:43:01.230Z,2.2
2018-09-24T06:53:01.239Z,2.0
2018-09-24T06:58:01.365Z,2.1
2018-09-24T07:03:01.304Z,2.1
2018-09-24T07:08:01.443Z,2.3
2018-09-24T07:13:01.308Z,2.5
2018-09-24T07:18:01.445Z,2.7
2018-09-24T07:23:01.304Z,2.8
2018-09-24T07:28:01.575Z,2.8
2018-09-24T07:43:01.325Z,2.3
2018-09-24T07:48:06.303Z,2.2
2018-09-24T07:53:01.242Z,2.4
2018-09-24T07:58:01.244Z,2.4
2018-09-24T08:08:01.234Z,2.6
2018-09-24T08:18:01.437Z,2.7
2018-09-24T08:33:06.415Z,2.7
2018-09-24T08:43:01.248Z,2.5
2018-09-24T08:49:01.244Z,2.7
2018-09-24T08:54:01.430Z,2.5
2018-09-24T08:59:06.237Z,2.5
2018-09-24T09:14:06.317Z,2.2
2018-09-24T09:24:06.399Z,2.2
2018-09-24T09:39:01.249Z,2.4
2018-09-24T09:44:06.246Z,2.6
2018-09-24T09:59:06.322Z,2.6
2018-09-24T10:04:01.258Z,2.5
2018-09-24T10:09:01.238Z,2.6
2018-09-24T10:14:01.241Z,2.4
2018-09-24T10:19:01.245Z,2.2
2018-09-24T10:29:01.316Z,2.1
2018-09-24T10:34:01.254Z,1.9
2018-09-24T10:39:01.293Z,2.0
2018-09-24T10:44:01.238Z,2.2
2018-09-24T10:49:01.239Z,2.1
2018-09-24T10:54:01.236Z,2.1
2018-09-24T10:59:01.242Z,2.1
2018-09-24T11:04:01.306Z,2.0
2018-09-24T11:09:01.376Z,2.2
2018-09-24T11:14:01.241Z,2.2
2018-09-24T11:19:01.242Z,2.2
2018-09-24T11:34:01.231Z,1.9
2018-09-24T11:39:01.247Z,1.9
2018-09-24T11:44:06.240Z,1.8
2018-09-24T11:59:01.242Z,1.9
2018-09-24T12:04:01.291Z,1.9
2018-09-24T12:09:01.239Z,2.0
2018-09-24T12:19:01.241Z,2.0
2018-09-24T12:29:01.250Z,1.8
2018-09-24T12:44:01.253Z,1.8
2018-09-24T12:55:01.433Z,2.0
2018-09-24T13:00:01.246Z,2.0
2018-09-24T13:05:01.244Z,2.0
2018-09-24T13:15:01.378Z,2.0
2018-09-24T13:30:01.241Z,2.0
2018-09-24T13:40:06.302Z,2.0
2018-09-24T13:45:06.238Z,2.0
2018-09-24T13:50:01.270Z,2.0
2018-09-24T13:55:06.243Z,2.2
2018-09-24T14:00:06.310Z,2.3
2018-09-24T14:10:01.234Z,2.5
2018-09-24T14:15:01.239Z,2.5
2018-09-24T14:20:01.426Z,2.3
2018-09-24T14:25:01.244Z,2.3
2018-09-24T14:30:01.242Z,2.3
2018-09-24T14:35:01.244Z,2.1
2018-09-24T14:40:01.240Z,2.4
2018-09-24T14:45:01.234Z,2.4
2018-09-24T14:50:01.237Z,2.3
2018-09-24T14:55:01.241Z,2.2
2018-09-24T15:00:01.237Z,2.2
2018-09-24T15:05:01.244Z,2.0
2018-09-24T15:15:01.250Z,2.4
2018-09-24T15:21:01.244Z,2.6
2018-09-24T15:31:01.247Z,2.8
2018-09-24T15:36:01.239Z,2.7
2018-09-24T15:41:01.444Z,2.6
2018-09-24T15:46:01.376Z,2.5
2018-09-24T15:51:01.250Z,2.6
2018-09-24T15:56:01.410Z,2.4
2018-09-24T16:01:01.231Z,2.7
2018-09-24T16:11:01.234Z,2.6
2018-09-24T16:16:01.243Z,2.7
2018-09-24T16:21:01.242Z,2.7
2018-09-24T16:26:01.246Z,2.3
2018-09-24T16:31:01.252Z,2.5
2018-09-24T16:36:01.244Z,2.6
2018-09-24T16:41:01.250Z,2.6
2018-09-24T16:46:01.263Z,2.7
2018-09-24T16:51:01.231Z,2.9
2018-09-24T16:56:01.243Z,2.7
2018-09-24T17:01:01.254Z,2.6
2018-09-24T17:06:01.237Z,2.5
2018-09-24T17:11:01.245Z,2.6
2018-09-24T17:16:01.437Z,2.8
2018-09-24T17:26:01.244Z,3.0
2018-09-24T17:31:06.554Z,3.1
2018-09-24T17:36:06.302Z,2.9
2018-09-24T17:41:06.558Z,3.2
2018-09-24T17:46:06.392Z,3.4
2018-09-24T17:51:06.302Z,3.4
2018-09-24T17:56:01.280Z,3.1
2018-09-24T18:06:01.659Z,2.7
2018-09-24T18:11:01.307Z,2.5
2018-09-24T18:16:01.243Z,2.6
2018-09-24T18:21:01.232Z,2.7
2018-09-24T18:26:01.230Z,2.6
2018-09-24T18:36:06.235Z,2.6
2018-09-24T18:41:01.375Z,2.8
2018-09-24T18:46:06.239Z,3.1
2018-09-24T18:51:01.309Z,3.4
2018-09-24T18:56:01.313Z,3.4
2018-09-24T19:01:01.421Z,3.3
2018-09-24T19:11:01.234Z,2.9
2018-09-24T19:16:01.239Z,2.6
2018-09-24T19:21:01.435Z,2.6
2018-09-24T19:26:01.251Z,2.8
2018-09-24T19:31:01.243Z,2.6
2018-09-24T19:36:01.236Z,2.7
2018-09-24T19:41:01.235Z,3.4
2018-09-24T19:46:01.265Z,3.7
2018-09-24T19:51:01.239Z,4.0
2018-09-24T19:56:01.240Z,3.8
2018-09-24T20:01:01.244Z,3.7
2018-09-24T20:06:01.241Z,3.0
2018-09-24T20:11:01.259Z,2.7
2018-09-24T20:16:01.235Z,2.5
2018-09-24T20:26:01.233Z,2.6
2018-09-24T20:31:01.236Z,3.0
2018-09-24T20:36:01.238Z,3.5
2018-09-24T20:51:01.233Z,3.6
2018-09-24T20:56:01.233Z,3.4
2018-09-24T21:01:01.234Z,2.9
2018-09-24T21:06:01.249Z,2.4
2018-09-24T21:11:01.243Z,2.8
2018-09-24T21:16:01.279Z,2.9
2018-09-24T21:21:01.242Z,3.0
2018-09-24T21:26:01.244Z,2.9
2018-09-24T21:31:06.237Z,3.2
2018-09-24T21:36:06.310Z,3.1
2018-09-24T21:41:06.237Z,3.2
2018-09-24T21:46:06.577Z,3.1
2018-09-24T21:51:01.240Z,3.2
2018-09-24T21:56:01.243Z,2.8
2018-09-24T22:01:01.248Z,3.2
2018-09-24T22:11:01.235Z,3.1
2018-09-24T22:16:01.241Z,3.4
2018-09-24T22:26:01.236Z,3.1
2018-09-24T22:36:01.238Z,3.3
2018-09-24T22:41:01.245Z,3.2
2018-09-24T22:51:06.271Z,3.4
2018-09-24T22:56:06.231Z,3.4
2018-09-24T23:01:01.233Z,3.2
2018-09-24T23:06:01.234Z,2.8
2018-09-24T23:11:01.241Z,3.0
2018-09-24T23:16:01.238Z,2.7
2018-09-24T23:21:01.238Z,2.7
2018-09-24T23:26:01.250Z,3.1
2018-09-24T23:31:01.232Z,3.6
2018-09-24T23:36:01.236Z,3.8
2018-09-24T23:41:01.236Z,4.1
2018-09-24T23:46:01.233Z,4.0
2018-09-24T23:51:01.302Z,3.6
2018-09-24T23:56:01.237Z,3.4
